createdAt,value
2023-04-19T00:01:05.957Z,79.73
2023-04-19T00:04:11.950Z,79.81
2023-04-19T00:05:35.219Z,79.96
2023-04-19T00:07:07.711Z,79.94
2023-04-19T00:08:40.158Z,79.94
2023-04-19T00:09:45.633Z,80.04
2023-04-19T00:10:58.092Z,79.88
2023-04-19T00:12:23.318Z,80.02
2023-04-19T00:13:55.697Z,80.06
2023-04-19T00:15:20.891Z,80.06
2023-04-19T00:16:51.829Z,80.05
2023-04-19T00:18:17.011Z,80.07
2023-04-19T00:19:39.678Z,80.06
2023-04-19T00:21:12.320Z,80.11
2023-04-19T00:22:37.456Z,80.30
2023-04-19T00:24:09.970Z,80.05
2023-04-19T00:25:26.429Z,80.04
2023-04-19T00:26:49.629Z,80.09
2023-04-19T00:27:57.063Z,80.17
2023-04-19T00:29:30.863Z,80.35
2023-04-19T00:31:03.470Z,80.37
2023-04-19T00:32:36.028Z,80.24
2023-04-19T00:34:04.939Z,80.40
2023-04-19T00:35:37.374Z,80.39
2023-04-19T00:37:11.115Z,80.50
2023-04-19T00:38:23.700Z,80.54
2023-04-19T00:42:35.756Z,80.85
2023-04-19T00:44:09.706Z,80.94
2023-04-19T00:45:29.835Z,81.06
2023-04-19T00:46:43.617Z,81.06
2023-04-19T00:48:16.473Z,81.08
2023-04-19T00:49:48.915Z,81.10
2023-04-19T00:51:11.619Z,81.36
2023-04-19T00:52:34.925Z,81.27
2023-04-19T00:54:07.494Z,81.43
2023-04-19T01:08:15.021Z,81.74
2023-04-19T01:09:47.916Z,81.72
2023-04-19T01:11:13.738Z,82.04
2023-04-19T01:13:00.944Z,82.12
2023-04-19T01:14:12.449Z,81.86
2023-04-19T01:15:24.708Z,81.91
2023-04-19T01:16:56.837Z,81.82
2023-04-19T01:18:05.385Z,81.83
2023-04-19T01:19:21.212Z,81.72
2023-04-19T01:20:42.923Z,81.77
2023-04-19T01:22:08.261Z,81.84
2023-04-19T01:23:26.389Z,81.84
2023-04-19T01:26:22.904Z,81.86
2023-04-19T01:28:00.603Z,81.92
2023-04-19T01:29:27.294Z,81.81
2023-04-19T01:35:16.378Z,81.88
2023-04-19T01:37:58.734Z,82.43
2023-04-19T01:39:14.192Z,82.07
2023-04-19T01:40:36.141Z,82.29
2023-04-19T01:41:34.136Z,82.40
2023-04-19T01:44:35.839Z,82.45
2023-04-19T01:45:49.506Z,82.49
2023-04-19T01:47:12.135Z,82.51
2023-04-19T01:48:46.110Z,82.66
2023-04-19T01:50:20.311Z,82.77
2023-04-19T01:51:54.398Z,82.67
2023-04-19T01:53:17.149Z,82.65
2023-04-19T02:03:35.838Z,82.57
2023-04-19T02:06:35.998Z,82.48
2023-04-19T02:08:10.982Z,82.59
2023-04-19T02:09:38.883Z,82.36
2023-04-19T02:11:14.353Z,82.40
2023-04-19T02:12:51.887Z,82.66
2023-04-19T02:14:33.640Z,82.68
2023-04-19T02:40:41.160Z,83.07
2023-04-19T02:42:13.628Z,83.05
2023-04-19T02:43:28.510Z,83.11
2023-04-19T02:44:53.872Z,82.99
2023-04-19T02:46:08.429Z,83.22
2023-04-19T02:47:40.951Z,83.20
2023-04-19T02:49:13.762Z,83.29
2023-04-19T02:50:36.175Z,83.34
2023-04-19T02:59:32.432Z,83.44
2023-04-19T03:02:48.436Z,83.67
2023-04-19T03:03:20.524Z,83.57
2023-04-19T03:03:52.414Z,83.70
2023-04-19T03:04:24.547Z,83.55
2023-04-19T03:04:56.672Z,83.60
2023-04-19T03:05:28.537Z,83.47
2023-04-19T03:06:00.361Z,83.45
2023-04-19T03:06:32.232Z,83.58
2023-04-19T03:07:04.041Z,83.51
2023-04-19T03:07:36.096Z,83.40
2023-04-19T03:08:07.954Z,83.46
2023-04-19T03:08:40.165Z,83.66
2023-04-19T03:09:12.153Z,83.67
2023-04-19T03:09:44.410Z,83.61
2023-04-19T03:10:16.580Z,83.80
2023-04-19T03:10:48.299Z,83.84
2023-04-19T03:11:20.766Z,83.85
2023-04-19T03:11:52.939Z,83.83
2023-04-19T03:12:24.770Z,83.81
2023-04-19T03:12:56.571Z,83.95
2023-04-19T03:13:28.465Z,83.86
2023-04-19T03:14:00.403Z,83.98
2023-04-19T03:14:33.690Z,83.98
2023-04-19T03:15:06.751Z,84.02
2023-04-19T03:15:38.696Z,84.06
2023-04-19T03:16:10.734Z,84.02
2023-04-19T03:16:42.458Z,84.09
2023-04-19T03:17:14.374Z,84.07
2023-04-19T03:17:46.445Z,83.95
2023-04-19T03:18:18.378Z,83.98
2023-04-19T03:18:50.219Z,84.13
2023-04-19T03:19:22.067Z,84.14
2023-04-19T03:19:53.896Z,84.09
2023-04-19T03:20:26.360Z,84.15
2023-04-19T03:20:58.314Z,84.23
2023-04-19T03:21:30.469Z,84.32
2023-04-19T03:22:02.407Z,84.46
2023-04-19T03:22:34.252Z,84.38
2023-04-19T03:23:06.156Z,84.55
2023-04-19T03:23:38.053Z,84.48
2023-04-19T03:24:10.020Z,84.52
2023-04-19T03:24:42.146Z,84.66
2023-04-19T03:25:13.895Z,84.57
2023-04-19T03:25:45.756Z,84.71
2023-04-19T03:26:17.699Z,84.71
2023-04-19T03:26:49.540Z,84.76
2023-04-19T03:27:21.409Z,84.78
2023-04-19T03:27:53.832Z,84.94
2023-04-19T03:28:25.705Z,84.95
2023-04-19T03:28:57.848Z,85.02
2023-04-19T03:29:29.812Z,85.00
2023-04-19T03:30:01.871Z,85.10
2023-04-19T03:30:33.801Z,84.91
2023-04-19T03:31:05.900Z,85.14
2023-04-19T03:31:37.944Z,85.13
2023-04-19T03:32:09.869Z,85.20
2023-04-19T03:32:41.965Z,85.28
2023-04-19T03:33:13.961Z,85.23
2023-04-19T03:33:45.866Z,85.37
2023-04-19T03:34:17.963Z,85.28
2023-04-19T03:34:50.127Z,85.34
2023-04-19T03:35:25.762Z,85.36
2023-04-19T03:35:57.689Z,85.51
2023-04-19T03:36:30.627Z,85.44
2023-04-19T03:37:02.509Z,85.52
2023-04-19T03:37:34.468Z,85.52
2023-04-19T03:38:06.423Z,85.72
2023-04-19T03:38:38.507Z,85.63
2023-04-19T03:39:10.406Z,85.65
2023-04-19T03:39:42.255Z,85.61
2023-04-19T03:40:14.132Z,85.66
2023-04-19T03:40:46.778Z,85.71
2023-04-19T03:41:24.991Z,85.78
2023-04-19T03:41:56.704Z,85.77
2023-04-19T03:42:29.333Z,85.78
2023-04-19T03:43:01.322Z,85.71
2023-04-19T03:43:33.173Z,85.63
2023-04-19T03:44:05.236Z,85.70
2023-04-19T03:44:37.583Z,85.71
2023-04-19T03:45:10.325Z,85.82
2023-04-19T03:45:42.409Z,85.80
2023-04-19T03:46:14.583Z,85.97
2023-04-19T03:46:48.255Z,85.92
2023-04-19T03:47:20.308Z,85.89
2023-04-19T03:47:52.229Z,85.91
2023-04-19T03:48:24.025Z,85.93
2023-04-19T03:48:55.935Z,86.02
2023-04-19T03:49:27.886Z,86.02
2023-04-19T03:49:59.868Z,86.07
2023-04-19T03:50:32.013Z,86.06
2023-04-19T03:51:03.972Z,86.04
2023-04-19T03:51:36.100Z,86.01
2023-04-19T03:52:08.147Z,86.04
2023-04-19T03:52:40.424Z,86.07
2023-04-19T03:53:12.632Z,86.12
2023-04-19T03:53:44.815Z,86.17
2023-04-19T03:54:17.196Z,86.15
2023-04-19T03:54:49.534Z,86.30
2023-04-19T03:55:21.584Z,86.31
2023-04-19T03:55:54.087Z,86.23
2023-04-19T03:56:26.093Z,86.29
2023-04-19T03:56:58.353Z,86.35
2023-04-19T03:57:30.812Z,86.39
2023-04-19T03:58:02.660Z,86.30
2023-04-19T03:58:34.823Z,86.40
2023-04-19T03:59:06.776Z,86.47
2023-04-19T03:59:38.822Z,86.46
2023-04-19T04:00:11.792Z,86.47
2023-04-19T04:00:43.588Z,86.58
2023-04-19T04:01:23.690Z,86.60
2023-04-19T04:01:56.053Z,86.52
2023-04-19T04:02:28.333Z,86.66
2023-04-19T04:03:00.658Z,86.66
2023-04-19T04:03:33.390Z,86.73
2023-04-19T04:04:05.816Z,86.57
2023-04-19T04:04:38.211Z,86.68
2023-04-19T04:05:10.663Z,86.65
2023-04-19T04:05:42.965Z,86.67
2023-04-19T04:06:15.769Z,86.72
2023-04-19T04:06:47.671Z,86.69
2023-04-19T04:07:19.625Z,86.72
2023-04-19T04:07:51.697Z,86.70
2023-04-19T04:08:23.854Z,86.71
2023-04-19T04:08:55.781Z,86.73
2023-04-19T04:09:27.863Z,86.76
2023-04-19T04:10:00.143Z,86.76
2023-04-19T04:10:32.149Z,86.75
2023-04-19T04:11:04.529Z,86.73
2023-04-19T04:11:36.642Z,86.66
2023-04-19T04:12:09.208Z,86.83
2023-04-19T04:12:41.376Z,86.91
2023-04-19T04:13:13.349Z,86.84
2023-04-19T04:13:46.209Z,86.77
2023-04-19T04:14:18.112Z,86.85
2023-04-19T04:14:50.088Z,86.80
2023-04-19T04:15:22.093Z,86.86
2023-04-19T04:15:54.039Z,86.97
2023-04-19T04:16:26.151Z,86.88
2023-04-19T04:16:58.193Z,86.86
2023-04-19T04:17:30.298Z,86.98
2023-04-19T04:18:02.698Z,86.97
2023-04-19T04:18:34.940Z,86.97
2023-04-19T04:19:07.219Z,86.96
2023-04-19T04:19:39.289Z,87.00
2023-04-19T04:20:13.155Z,87.07
2023-04-19T04:20:45.341Z,87.01
2023-04-19T04:21:17.305Z,86.98
2023-04-19T04:21:49.514Z,87.10
2023-04-19T04:22:21.782Z,87.20
2023-04-19T04:22:54.061Z,86.94
2023-04-19T04:23:26.182Z,87.14
2023-04-19T04:23:58.250Z,87.11
2023-04-19T04:24:32.553Z,87.16
2023-04-19T04:25:05.344Z,87.08
2023-04-19T04:25:38.736Z,87.21
2023-04-19T04:26:13.416Z,87.11
2023-04-19T04:26:45.256Z,87.21
2023-04-19T04:27:20.808Z,87.12
2023-04-19T04:27:52.893Z,87.14
2023-04-19T04:28:25.409Z,87.09
2023-04-19T04:28:57.260Z,87.07
2023-04-19T04:29:29.212Z,87.14
2023-04-19T04:30:01.575Z,87.09
2023-04-19T04:30:33.933Z,87.18
2023-04-19T04:31:06.077Z,87.14
2023-04-19T04:31:38.052Z,87.14
2023-04-19T04:32:10.673Z,87.04
2023-04-19T04:32:43.003Z,87.12
2023-04-19T04:33:15.007Z,87.20
2023-04-19T04:33:46.974Z,87.19
2023-04-19T04:34:20.073Z,87.27
2023-04-19T04:34:51.988Z,87.24
2023-04-19T04:35:23.870Z,87.33
2023-04-19T04:35:57.518Z,87.22
2023-04-19T04:36:30.716Z,87.18
2023-04-19T04:37:03.243Z,87.21
2023-04-19T04:37:35.423Z,87.16
2023-04-19T04:38:17.493Z,87.19
2023-04-19T04:38:53.757Z,87.07
2023-04-19T04:39:26.315Z,87.31
2023-04-19T04:39:58.286Z,87.17
2023-04-19T04:40:30.320Z,87.16
2023-04-19T04:41:02.679Z,87.19
2023-04-19T04:41:35.575Z,87.03
2023-04-19T04:42:08.328Z,87.08
2023-04-19T04:42:40.469Z,87.22
2023-04-19T04:43:13.047Z,87.17
2023-04-19T04:43:53.840Z,87.20
2023-04-19T04:44:31.283Z,87.22
2023-04-19T04:45:04.468Z,87.18
2023-04-19T04:45:37.473Z,87.16
2023-04-19T04:46:09.416Z,86.99
2023-04-19T04:46:41.339Z,87.14
2023-04-19T04:47:13.811Z,87.10
2023-04-19T04:47:46.078Z,87.16
2023-04-19T04:48:18.339Z,87.10
2023-04-19T04:48:52.101Z,87.17
2023-04-19T04:49:24.065Z,86.99
2023-04-19T04:49:56.192Z,87.20
2023-04-19T04:50:28.459Z,87.27
2023-04-19T04:51:00.720Z,87.17
2023-04-19T04:51:32.866Z,87.02
2023-04-19T04:52:06.045Z,87.11
2023-04-19T04:52:38.113Z,87.01
2023-04-19T04:53:13.126Z,87.03
2023-04-19T04:53:46.778Z,87.03
2023-04-19T04:54:18.617Z,87.02
2023-04-19T04:54:51.220Z,87.08
2023-04-19T04:55:23.789Z,87.08
2023-04-19T04:55:55.839Z,87.10
2023-04-19T04:56:28.134Z,87.16
2023-04-19T04:57:00.882Z,87.05
2023-04-19T04:57:32.916Z,87.26
2023-04-19T04:58:05.487Z,87.14
2023-04-19T04:58:37.849Z,87.00
2023-04-19T04:59:10.108Z,86.99
2023-04-19T04:59:42.140Z,87.01
2023-04-19T05:00:15.182Z,87.02
2023-04-19T05:00:48.792Z,87.06
2023-04-19T05:01:22.545Z,87.10
2023-04-19T05:01:54.720Z,87.17
2023-04-19T05:02:27.120Z,87.05
2023-04-19T05:02:59.829Z,87.20
2023-04-19T05:03:32.169Z,87.05
2023-04-19T05:04:04.882Z,87.04
2023-04-19T05:04:37.179Z,86.97
2023-04-19T05:05:10.956Z,86.92
2023-04-19T05:05:44.972Z,86.90
2023-04-19T05:06:17.613Z,87.02
2023-04-19T05:06:50.113Z,86.92
2023-04-19T05:07:22.454Z,86.87
2023-04-19T05:07:55.007Z,87.02
2023-04-19T05:08:27.899Z,86.93
2023-04-19T05:09:00.015Z,86.90
2023-04-19T05:09:32.307Z,87.00
2023-04-19T05:10:05.582Z,87.03
2023-04-19T05:10:38.222Z,87.00
2023-04-19T05:11:10.496Z,87.02
2023-04-19T05:11:42.739Z,87.03
2023-04-19T05:12:15.312Z,87.00
2023-04-19T05:12:47.360Z,87.24
2023-04-19T05:13:19.406Z,87.03
2023-04-19T05:13:51.461Z,87.07
2023-04-19T05:14:23.529Z,87.16
2023-04-19T05:14:55.584Z,87.13
2023-04-19T05:15:27.816Z,87.20
2023-04-19T05:16:00.314Z,86.99
2023-04-19T05:16:33.019Z,87.16
2023-04-19T05:17:07.054Z,86.94
2023-04-19T05:17:39.135Z,87.08
2023-04-19T05:18:11.041Z,87.13
2023-04-19T05:18:43.109Z,87.26
2023-04-19T05:19:15.056Z,87.12
2023-04-19T05:19:47.094Z,87.13
2023-04-19T05:20:19.878Z,87.08
2023-04-19T05:20:52.221Z,86.98
2023-04-19T05:21:24.305Z,87.02
2023-04-19T05:21:56.293Z,87.08
2023-04-19T05:22:28.475Z,87.14
2023-04-19T05:23:02.905Z,87.09
2023-04-19T05:23:35.174Z,87.06
2023-04-19T05:24:09.555Z,87.04
2023-04-19T05:24:42.392Z,86.96
2023-04-19T05:25:14.577Z,87.09
2023-04-19T05:25:47.398Z,87.02
2023-04-19T05:26:19.445Z,87.07
2023-04-19T05:26:51.348Z,87.05
2023-04-19T05:27:23.272Z,87.13
2023-04-19T05:27:55.737Z,87.15
2023-04-19T05:28:27.940Z,87.11
2023-04-19T05:28:59.829Z,87.15
2023-04-19T05:29:32.234Z,87.23
2023-04-19T05:30:06.115Z,87.13
2023-04-19T05:30:38.175Z,87.14
2023-04-19T05:31:10.791Z,87.13
2023-04-19T05:31:42.943Z,87.16
2023-04-19T05:32:15.048Z,87.25
2023-04-19T05:32:47.175Z,87.09
2023-04-19T05:33:19.290Z,87.23
2023-04-19T05:33:51.096Z,87.31
2023-04-19T05:34:23.293Z,87.06
2023-04-19T05:34:55.715Z,87.19
2023-04-19T05:35:27.583Z,87.23
2023-04-19T05:35:59.433Z,87.18
2023-04-19T05:36:31.966Z,87.24
2023-04-19T05:37:05.477Z,87.34
2023-04-19T05:37:38.625Z,87.26
2023-04-19T05:38:10.794Z,87.21
2023-04-19T05:38:42.526Z,87.03
2023-04-19T05:39:15.099Z,87.16
2023-04-19T05:39:47.035Z,87.19
2023-04-19T05:40:19.208Z,87.24
2023-04-19T05:40:51.247Z,87.26
2023-04-19T05:41:23.441Z,87.22
2023-04-19T05:41:55.377Z,87.28
2023-04-19T05:42:27.311Z,87.29
2023-04-19T05:42:59.354Z,87.40
2023-04-19T05:43:31.529Z,87.30
2023-04-19T05:44:03.878Z,87.53
2023-04-19T05:44:35.908Z,87.32
2023-04-19T05:45:08.480Z,87.34
2023-04-19T05:45:40.734Z,87.45
2023-04-19T05:46:12.711Z,87.49
2023-04-19T05:46:44.880Z,87.57
2023-04-19T05:47:17.330Z,87.45
2023-04-19T05:47:49.385Z,87.56
2023-04-19T05:48:21.322Z,87.50
2023-04-19T05:48:53.377Z,87.48
2023-04-19T05:49:25.328Z,87.57
2023-04-19T05:49:57.458Z,87.66
2023-04-19T05:50:29.527Z,87.59
2023-04-19T05:51:01.569Z,87.39
2023-04-19T05:51:33.521Z,87.29
2023-04-19T05:52:05.669Z,87.30
2023-04-19T05:52:37.716Z,87.27
2023-04-19T05:53:09.781Z,87.35
2023-04-19T05:53:41.922Z,87.25
2023-04-19T05:54:14.504Z,87.33
2023-04-19T05:54:46.746Z,87.29
2023-04-19T05:55:19.118Z,87.41
2023-04-19T05:55:51.779Z,87.41
2023-04-19T05:56:23.514Z,87.40
2023-04-19T05:56:55.915Z,87.36
2023-04-19T05:57:27.874Z,87.38
2023-04-19T05:58:00.480Z,87.35
2023-04-19T05:58:32.367Z,87.28
2023-04-19T05:59:04.378Z,87.25
2023-04-19T05:59:36.330Z,87.36
2023-04-19T06:00:11.639Z,87.24
2023-04-19T06:00:43.610Z,87.29
2023-04-19T06:01:15.905Z,87.34
2023-04-19T06:01:47.756Z,87.22
2023-04-19T06:02:20.223Z,87.17
2023-04-19T06:02:52.478Z,87.35
2023-04-19T06:03:26.796Z,87.19
2023-04-19T06:04:00.914Z,87.34
2023-04-19T06:04:33.389Z,87.28
2023-04-19T06:05:09.983Z,87.32
2023-04-19T06:05:42.850Z,87.33
2023-04-19T06:06:14.944Z,87.42
2023-04-19T06:06:47.149Z,87.19
2023-04-19T06:07:31.163Z,87.27
2023-04-19T06:08:06.771Z,87.42
2023-04-19T06:08:38.572Z,87.30
2023-04-19T06:09:11.926Z,87.33
2023-04-19T06:09:43.782Z,87.42
2023-04-19T06:10:16.141Z,87.19
2023-04-19T06:10:54.618Z,87.35
2023-04-19T06:11:38.772Z,87.23
2023-04-19T06:12:15.228Z,87.19
2023-04-19T06:12:47.696Z,87.11
2023-04-19T06:13:19.847Z,87.31
2023-04-19T06:13:51.839Z,87.14
2023-04-19T06:14:24.049Z,87.23
2023-04-19T06:14:56.355Z,87.22
2023-04-19T06:15:30.513Z,87.18
2023-04-19T06:16:03.331Z,87.33
2023-04-19T06:16:35.428Z,87.01
2023-04-19T06:17:07.374Z,87.11
2023-04-19T06:17:39.172Z,87.17
2023-04-19T06:18:19.124Z,87.25
2023-04-19T06:18:52.131Z,87.30
2023-04-19T06:19:24.086Z,87.22
2023-04-19T06:19:56.449Z,87.28
2023-04-19T06:20:28.285Z,87.20
2023-04-19T06:21:00.246Z,87.25
2023-04-19T06:21:32.521Z,87.33
2023-04-19T06:22:04.698Z,87.12
2023-04-19T06:22:45.171Z,87.17
2023-04-19T06:23:17.972Z,87.19
2023-04-19T06:23:50.155Z,87.22
2023-04-19T06:24:22.026Z,87.29
2023-04-19T06:24:53.927Z,87.33
2023-04-19T06:25:25.862Z,87.18
2023-04-19T06:25:57.613Z,87.13
2023-04-19T06:26:29.558Z,87.07
2023-04-19T06:27:01.967Z,87.25
2023-04-19T06:27:34.121Z,86.99
2023-04-19T06:28:06.360Z,87.00
2023-04-19T06:28:38.394Z,87.05
2023-04-19T06:29:10.436Z,86.96
2023-04-19T06:29:42.639Z,87.17
2023-04-19T06:30:14.648Z,87.10
2023-04-19T06:30:46.707Z,87.04
2023-04-19T06:31:19.456Z,86.99
2023-04-19T06:31:51.550Z,87.01
2023-04-19T06:32:25.543Z,86.93
2023-04-19T06:32:57.580Z,87.02
2023-04-19T06:33:29.713Z,86.90
2023-04-19T06:34:01.881Z,86.95
2023-04-19T06:34:33.837Z,86.74
2023-04-19T06:35:06.590Z,86.59
2023-04-19T06:35:38.439Z,86.72
2023-04-19T06:36:10.488Z,86.63
2023-04-19T06:36:42.448Z,86.68
2023-04-19T06:37:14.810Z,86.62
2023-04-19T06:37:46.862Z,86.62
2023-04-19T06:38:18.844Z,86.49
2023-04-19T06:38:50.854Z,86.51
2023-04-19T06:39:22.706Z,86.32
2023-04-19T06:39:55.182Z,86.45
2023-04-19T06:40:28.967Z,86.44
2023-04-19T06:41:01.017Z,86.45
2023-04-19T06:41:33.153Z,86.43
2023-04-19T06:42:05.230Z,86.42
2023-04-19T06:42:37.875Z,86.54
2023-04-19T06:43:09.643Z,86.75
2023-04-19T06:43:42.651Z,86.68
2023-04-19T06:44:15.278Z,86.75
2023-04-19T06:44:47.420Z,86.71
2023-04-19T06:45:19.471Z,86.52
2023-04-19T06:46:01.589Z,86.41
2023-04-19T06:46:33.799Z,86.35
2023-04-19T06:47:05.944Z,86.54
2023-04-19T06:47:37.881Z,86.53
2023-04-19T06:48:10.117Z,86.63
2023-04-19T06:48:42.113Z,86.56
2023-04-19T06:49:14.191Z,86.54
2023-04-19T06:49:46.423Z,86.49
2023-04-19T06:50:18.374Z,86.48
2023-04-19T06:50:50.340Z,86.35
2023-04-19T06:51:22.382Z,86.24
2023-04-19T06:51:54.429Z,86.34
2023-04-19T06:52:26.448Z,86.40
2023-04-19T06:52:58.256Z,86.35
2023-04-19T06:53:30.171Z,86.31
2023-04-19T06:54:02.065Z,86.41
2023-04-19T06:54:33.865Z,86.41
2023-04-19T06:55:07.057Z,86.36
2023-04-19T06:55:38.836Z,86.07
2023-04-19T06:56:12.452Z,86.11
2023-04-19T06:56:46.649Z,86.07
2023-04-19T06:57:19.043Z,86.17
2023-04-19T06:57:51.087Z,86.19
2023-04-19T06:58:23.050Z,86.19
2023-04-19T06:58:54.890Z,86.16
2023-04-19T06:59:28.071Z,86.13
2023-04-19T07:00:00.325Z,86.14
2023-04-19T07:00:32.307Z,85.94
2023-04-19T07:01:04.950Z,85.99
2023-04-19T07:01:37.575Z,85.98
2023-04-19T07:02:10.260Z,85.99
2023-04-19T07:02:42.495Z,85.97
2023-04-19T07:03:15.025Z,85.76
2023-04-19T07:03:47.365Z,85.94
2023-04-19T07:04:19.585Z,85.73
2023-04-19T07:04:51.901Z,85.78
2023-04-19T07:05:23.813Z,85.71
2023-04-19T07:05:58.744Z,85.53
2023-04-19T07:06:30.771Z,85.59
2023-04-19T07:07:06.002Z,85.43
2023-04-19T07:07:38.344Z,85.30
2023-04-19T07:08:12.676Z,85.42
2023-04-19T07:09:20.596Z,85.36
2023-04-19T07:09:52.548Z,84.83
2023-04-19T07:10:24.384Z,84.82
2023-04-19T07:10:56.421Z,84.70
2023-04-19T07:11:28.365Z,84.49
2023-04-19T07:12:01.618Z,84.51
2023-04-19T07:12:33.479Z,84.54
2023-04-19T07:13:05.631Z,84.45
2023-04-19T07:13:37.694Z,84.39
2023-04-19T07:14:09.542Z,84.48
2023-04-19T07:14:41.482Z,84.26
2023-04-19T07:15:13.394Z,84.32
2023-04-19T07:15:45.497Z,84.20
2023-04-19T07:16:17.575Z,84.11
2023-04-19T07:16:50.760Z,84.25
2023-04-19T07:17:23.658Z,83.96
2023-04-19T07:17:55.658Z,83.82
2023-04-19T07:18:27.500Z,83.67
2023-04-19T07:18:59.529Z,83.83
2023-04-19T07:19:31.688Z,83.84
2023-04-19T07:20:06.007Z,83.85
2023-04-19T07:20:37.935Z,83.91
2023-04-19T07:21:10.840Z,83.88
2023-04-19T07:21:42.669Z,83.97
2023-04-19T07:22:15.310Z,83.69
2023-04-19T07:22:47.372Z,83.39
2023-04-19T07:23:19.336Z,83.38
2023-04-19T07:23:51.388Z,83.49
2023-04-19T07:24:23.364Z,83.17
2023-04-19T07:24:55.484Z,83.11
2023-04-19T07:25:27.500Z,82.98
2023-04-19T07:25:59.503Z,82.88
2023-04-19T07:26:31.549Z,82.93
2023-04-19T07:27:03.804Z,82.67
2023-04-19T07:27:35.755Z,82.63
2023-04-19T07:28:07.995Z,82.52
2023-04-19T07:28:40.277Z,82.53
2023-04-19T07:29:14.889Z,82.43
2023-04-19T07:29:46.877Z,82.42
2023-04-19T07:30:19.195Z,82.46
2023-04-19T07:30:51.267Z,82.34
2023-04-19T07:31:26.854Z,82.10
2023-04-19T07:32:00.963Z,82.22
2023-04-19T07:32:32.883Z,82.11
2023-04-19T07:33:07.871Z,81.89
2023-04-19T07:33:39.990Z,81.92
2023-04-19T07:34:12.050Z,81.76
2023-04-19T07:34:45.511Z,81.71
2023-04-19T07:35:19.001Z,81.58
2023-04-19T07:35:51.488Z,81.65
2023-04-19T07:36:23.520Z,81.61
2023-04-19T07:36:55.478Z,81.44
2023-04-19T07:37:28.166Z,81.36
2023-04-19T07:38:00.029Z,81.31
2023-04-19T07:38:32.031Z,81.03
2023-04-19T07:39:04.490Z,81.19
2023-04-19T07:39:36.658Z,81.08
2023-04-19T07:40:09.291Z,81.08
2023-04-19T07:40:41.255Z,80.83
2023-04-19T07:41:13.232Z,80.89
2023-04-19T07:41:46.206Z,80.77
2023-04-19T07:42:18.370Z,80.75
2023-04-19T07:42:50.896Z,80.76
2023-04-19T07:43:22.866Z,80.41
2023-04-19T07:43:54.922Z,80.18
2023-04-19T07:44:27.067Z,80.04
2023-04-19T07:44:59.691Z,80.02
2023-04-19T07:45:31.721Z,79.86
2023-04-19T07:46:15.632Z,79.58
2023-04-19T07:46:47.579Z,79.34
2023-04-19T07:47:19.625Z,79.17
2023-04-19T07:47:51.646Z,79.22
2023-04-19T07:48:23.821Z,79.20
2023-04-19T07:48:55.761Z,79.27
2023-04-19T07:49:28.914Z,79.09
2023-04-19T07:50:01.004Z,79.08
2023-04-19T07:50:32.848Z,79.19
2023-04-19T07:51:09.964Z,79.14
2023-04-19T07:51:41.679Z,79.19
2023-04-19T07:52:13.747Z,79.10
2023-04-19T07:52:45.755Z,79.15
2023-04-19T07:53:18.041Z,79.12
2023-04-19T07:53:50.159Z,79.00
2023-04-19T07:54:22.111Z,78.94
2023-04-19T07:54:53.916Z,78.79
2023-04-19T07:55:25.829Z,78.82
2023-04-19T07:55:57.676Z,78.79
2023-04-19T07:56:29.706Z,78.57
2023-04-19T07:57:01.868Z,78.64
2023-04-19T07:57:35.443Z,78.61
2023-04-19T07:58:07.288Z,78.65
2023-04-19T07:58:40.878Z,78.78
2023-04-19T07:59:12.737Z,78.63
2023-04-19T07:59:44.592Z,78.58
2023-04-19T08:00:18.239Z,78.53
2023-04-19T08:00:50.102Z,78.47
2023-04-19T08:01:22.265Z,78.49
2023-04-19T08:01:54.483Z,78.40
2023-04-19T08:02:27.531Z,78.31
2023-04-19T08:03:00.229Z,78.33
2023-04-19T08:03:34.035Z,78.00
2023-04-19T08:04:06.571Z,78.25
2023-04-19T08:04:39.479Z,78.19
2023-04-19T08:05:13.608Z,78.06
2023-04-19T08:05:45.770Z,77.84
2023-04-19T08:06:17.817Z,77.91
2023-04-19T08:06:50.162Z,77.92
2023-04-19T08:07:23.240Z,78.13
2023-04-19T08:07:56.403Z,78.09
2023-04-19T08:08:28.371Z,77.92
2023-04-19T08:09:00.368Z,78.13
2023-04-19T08:09:34.291Z,78.01
2023-04-19T08:10:07.381Z,78.02
2023-04-19T08:10:39.246Z,78.07
2023-04-19T08:11:11.290Z,78.01
2023-04-19T08:11:43.327Z,78.14
2023-04-19T08:12:26.872Z,77.97
2023-04-19T08:13:06.553Z,78.10
2023-04-19T08:13:40.395Z,78.00
2023-04-19T08:14:22.269Z,78.03
2023-04-19T08:15:17.994Z,78.01
2023-04-19T08:17:11.445Z,77.91
2023-04-19T08:17:30.729Z,77.86
2023-04-19T08:18:07.246Z,77.90
2023-04-19T08:18:39.384Z,77.93
2023-04-19T08:19:11.435Z,77.79
2023-04-19T08:19:43.283Z,77.84
2023-04-19T08:20:15.778Z,77.91
2023-04-19T08:20:48.614Z,77.93
2023-04-19T08:21:24.102Z,77.90
2023-04-19T08:22:00.726Z,77.83
2023-04-19T08:22:32.766Z,77.72
2023-04-19T08:23:18.135Z,77.41
2023-04-19T08:23:54.459Z,77.21
2023-04-19T08:24:26.838Z,77.14
2023-04-19T08:24:58.680Z,77.27
2023-04-19T08:25:30.593Z,77.24
2023-04-19T08:26:03.210Z,77.20
2023-04-19T08:26:35.041Z,77.25
2023-04-19T08:27:07.245Z,77.16
2023-04-19T08:27:39.315Z,77.14
2023-04-19T08:28:12.247Z,77.18
2023-04-19T08:28:44.082Z,77.20
2023-04-19T08:29:16.399Z,77.36
2023-04-19T08:29:48.701Z,77.30
2023-04-19T08:30:21.065Z,77.35
2023-04-19T08:30:54.639Z,77.35
2023-04-19T08:31:26.715Z,77.44
2023-04-19T08:31:58.904Z,77.27
2023-04-19T08:32:31.346Z,77.32
2023-04-19T08:33:03.618Z,77.32
2023-04-19T08:33:35.844Z,77.47
2023-04-19T08:34:07.898Z,77.49
2023-04-19T08:34:40.255Z,77.47
2023-04-19T08:35:13.615Z,77.62
2023-04-19T08:35:45.871Z,77.63
2023-04-19T08:36:22.355Z,77.60
2023-04-19T08:37:03.824Z,77.48
2023-04-19T08:37:36.974Z,77.61
2023-04-19T08:38:09.404Z,77.70
2023-04-19T08:38:44.504Z,77.72
2023-04-19T08:39:31.884Z,77.80
2023-04-19T08:40:06.287Z,77.72
2023-04-19T08:40:45.195Z,77.69
2023-04-19T08:41:19.382Z,77.84
2023-04-19T08:42:02.518Z,77.84
2023-04-19T08:42:37.457Z,77.78
2023-04-19T08:43:10.082Z,77.68
2023-04-19T08:43:43.567Z,77.30
2023-04-19T08:44:22.539Z,77.60
2023-04-19T08:45:41.213Z,77.23
2023-04-19T08:46:13.201Z,77.49
2023-04-19T08:46:46.151Z,77.36
2023-04-19T08:47:30.103Z,77.43
2023-04-19T08:48:04.443Z,77.64
2023-04-19T08:48:37.552Z,77.50
2023-04-19T08:49:11.600Z,77.55
2023-04-19T08:49:47.538Z,77.43
2023-04-19T08:50:32.605Z,77.39
2023-04-19T08:51:08.658Z,77.22
2023-04-19T08:51:40.912Z,77.27
2023-04-19T08:52:14.038Z,77.22
2023-04-19T08:52:54.880Z,77.07
2023-04-19T08:53:30.124Z,77.03
2023-04-19T08:54:05.149Z,77.17
2023-04-19T08:54:37.811Z,77.22
2023-04-19T08:55:10.457Z,77.25
2023-04-19T08:55:59.131Z,77.07
2023-04-19T08:56:36.054Z,77.07
2023-04-19T08:57:09.162Z,77.11
2023-04-19T08:57:41.343Z,76.97
2023-04-19T08:58:26.283Z,77.07
2023-04-19T08:59:45.534Z,76.80
2023-04-19T09:00:18.822Z,76.80
2023-04-19T09:00:50.777Z,76.76
2023-04-19T09:02:01.703Z,76.85
2023-04-19T09:02:51.368Z,76.73
2023-04-19T09:03:23.683Z,76.75
2023-04-19T09:04:07.385Z,76.77
2023-04-19T09:04:48.514Z,76.65
2023-04-19T09:05:21.223Z,76.90
2023-04-19T09:05:54.729Z,76.69
2023-04-19T09:06:27.303Z,76.56
2023-04-19T09:06:59.736Z,76.66
2023-04-19T09:07:32.281Z,76.43
2023-04-19T09:08:24.783Z,76.50
2023-04-19T09:10:09.000Z,76.41
2023-04-19T09:10:53.610Z,76.39
2023-04-19T09:11:51.853Z,76.33
2023-04-19T09:12:24.221Z,76.37
2023-04-19T09:13:04.177Z,76.40
2023-04-19T09:13:40.197Z,76.41
2023-04-19T09:14:14.539Z,76.53
2023-04-19T09:15:00.458Z,76.42
2023-04-19T09:15:41.645Z,76.49
2023-04-19T09:16:24.746Z,76.42
2023-04-19T09:17:16.507Z,76.59
2023-04-19T09:18:04.443Z,76.58
2023-04-19T09:19:22.485Z,76.45
2023-04-19T09:19:50.321Z,76.45
2023-04-19T09:20:43.530Z,76.36
2023-04-19T09:21:28.081Z,76.31
2023-04-19T09:22:13.031Z,76.04
2023-04-19T09:23:03.593Z,75.84
2023-04-19T09:23:47.905Z,75.83
2023-04-19T09:24:19.806Z,75.76
2023-04-19T09:26:19.442Z,75.46
2023-04-19T09:26:55.547Z,75.31
2023-04-19T09:27:31.101Z,75.25
2023-04-19T09:28:13.075Z,75.21
2023-04-19T09:29:01.560Z,75.10
2023-04-19T09:29:33.365Z,75.04
2023-04-19T09:30:07.235Z,75.13
2023-04-19T09:30:54.807Z,75.02
2023-04-19T09:31:50.993Z,75.15
2023-04-19T09:32:24.765Z,74.96
2023-04-19T09:32:56.948Z,75.00
2023-04-19T09:33:39.053Z,75.01
2023-04-19T09:34:16.323Z,75.01
2023-04-19T09:34:56.746Z,75.04
2023-04-19T09:35:49.271Z,74.90
2023-04-19T09:36:31.863Z,75.04